sensor_id;sensor_type;location;lat;lon;timestamp;P1;durP1;ratioP1;P2;durP2;ratioP2
16173;SDS011;14031;50.158;8.626;2024-01-15T00:01:20;19.63;;;9.90;;
16173;SDS011;14031;50.158;8.626;2024-01-15T00:03:47;21.60;;;9.63;;
16173;SDS011;14031;50.158;8.626;2024-01-15T00:06:14;18.63;;;9.40;;
16173;SDS011;14031;50.158;8.626;2024-01-15T00:08:41;19.83;;;9.57;;
16173;SDS011;14031;50.158;8.626;2024-01-15T00:11:07;26.17;;;9.73;;
16173;SDS011;14031;50.158;8.626;2024-01-15T00:13:34;17.00;;;9.23;;
16173;SDS011;14031;50.158;8.626;2024-01-15T00:16:02;20.80;;;9.53;;
16173;SDS011;14031;50.158;8.626;2024-01-15T00:18:30;19.43;;;9.13;;
16173;SDS011;14031;50.158;8.626;2024-01-15T00:20:57;23.90;;;9.30;;
16173;SDS011;14031;50.158;8.626;2024-01-15T00:23:24;20.80;;;9.40;;
16173;SDS011;14031;50.158;8.626;2024-01-15T00:25:51;20.37;;;9.40;;
16173;SDS011;14031;50.158;8.626;2024-01-15T00:28:18;22.90;;;9.40;;
16173;SDS011;14031;50.158;8.626;2024-01-15T00:30:44;23.30;;;9.30;;
16173;SDS011;14031;50.158;8.626;2024-01-15T00:33:12;18.93;;;9.80;;
16173;SDS011;14031;50.158;8.626;2024-01-15T00:35:39;21.73;;;9.50;;
16173;SDS011;14031;50.158;8.626;2024-01-15T00:38:06;18.17;;;9.00;;
16173;SDS011;14031;50.158;8.626;2024-01-15T00:40:33;15.03;;;8.60;;
16173;SDS011;14031;50.158;8.626;2024-01-15T00:43:00;19.50;;;8.73;;
16173;SDS011;14031;50.158;8.626;2024-01-15T00:45:27;21.73;;;9.77;;
16173;SDS011;14031;50.158;8.626;2024-01-15T00:47:54;22.77;;;9.97;;
16173;SDS011;14031;50.158;8.626;2024-01-15T00:50:22;21.37;;;9.37;;
16173;SDS011;14031;50.158;8.626;2024-01-15T00:52:49;18.10;;;9.37;;
16173;SDS011;14031;50.158;8.626;2024-01-15T00:55:16;20.03;;;9.50;;
16173;SDS011;14031;50.158;8.626;2024-01-15T00:57:43;19.37;;;9.17;;
16173;SDS011;14031;50.158;8.626;2024-01-15T01:00:10;17.57;;;8.67;;
16173;SDS011;14031;50.158;8.626;2024-01-15T01:02:37;17.30;;;9.13;;
16173;SDS011;14031;50.158;8.626;2024-01-15T01:05:04;20.23;;;9.63;;
16173;SDS011;14031;50.158;8.626;2024-01-15T01:07:33;22.50;;;9.73;;
16173;SDS011;14031;50.158;8.626;2024-01-15T01:09:59;26.67;;;9.80;;
16173;SDS011;14031;50.158;8.626;2024-01-15T01:12:26;24.17;;;10.07;;
16173;SDS011;14031;50.158;8.626;2024-01-15T01:14:54;20.83;;;10.07;;
16173;SDS011;14031;50.158;8.626;2024-01-15T01:17:21;21.03;;;9.10;;
16173;SDS011;14031;50.158;8.626;2024-01-15T01:19:49;22.93;;;10.73;;
16173;SDS011;14031;50.158;8.626;2024-01-15T01:22:15;19.73;;;9.70;;
16173;SDS011;14031;50.158;8.626;2024-01-15T01:24:43;27.97;;;10.23;;
16173;SDS011;14031;50.158;8.626;2024-01-15T01:27:10;24.47;;;10.60;;
16173;SDS011;14031;50.158;8.626;2024-01-15T01:29:37;21.00;;;10.50;;
16173;SDS011;14031;50.158;8.626;2024-01-15T01:32:04;23.40;;;10.13;;
16173;SDS011;14031;50.158;8.626;2024-01-15T01:34:32;25.10;;;10.43;;
16173;SDS011;14031;50.158;8.626;2024-01-15T01:37:06;24.70;;;9.83;;
16173;SDS011;14031;50.158;8.626;2024-01-15T01:39:33;22.37;;;10.53;;
16173;SDS011;14031;50.158;8.626;2024-01-15T01:42:01;21.77;;;9.37;;
16173;SDS011;14031;50.158;8.626;2024-01-15T01:44:28;27.00;;;10.73;;
16173;SDS011;14031;50.158;8.626;2024-01-15T01:46:55;20.17;;;9.70;;
16173;SDS011;14031;50.158;8.626;2024-01-15T01:49:22;20.47;;;9.20;;
16173;SDS011;14031;50.158;8.626;2024-01-15T01:51:49;23.27;;;9.90;;
16173;SDS011;14031;50.158;8.626;2024-01-15T01:54:16;24.23;;;11.20;;
16173;SDS011;14031;50.158;8.626;2024-01-15T01:56:43;25.27;;;10.20;;
16173;SDS011;14031;50.158;8.626;2024-01-15T01:59:12;27.33;;;10.67;;
16173;SDS011;14031;50.158;8.626;2024-01-15T02:01:40;23.33;;;9.63;;
16173;SDS011;14031;50.158;8.626;2024-01-15T02:04:08;23.47;;;10.27;;
16173;SDS011;14031;50.158;8.626;2024-01-15T02:06:35;19.13;;;9.47;;
16173;SDS011;14031;50.158;8.626;2024-01-15T02:09:01;24.27;;;9.77;;
16173;SDS011;14031;50.158;8.626;2024-01-15T02:11:29;26.00;;;10.57;;
16173;SDS011;14031;50.158;8.626;2024-01-15T02:13:56;22.23;;;9.17;;
16173;SDS011;14031;50.158;8.626;2024-01-15T02:16:24;18.90;;;9.20;;
16173;SDS011;14031;50.158;8.626;2024-01-15T02:18:51;19.37;;;8.67;;
16173;SDS011;14031;50.158;8.626;2024-01-15T02:21:18;20.90;;;10.17;;
16173;SDS011;14031;50.158;8.626;2024-01-15T02:23:46;25.13;;;10.43;;
16173;SDS011;14031;50.158;8.626;2024-01-15T02:26:12;25.87;;;9.97;;
16173;SDS011;14031;50.158;8.626;2024-01-15T02:28:40;23.20;;;10.10;;
16173;SDS011;14031;50.158;8.626;2024-01-15T02:31:09;25.17;;;10.23;;
16173;SDS011;14031;50.158;8.626;2024-01-15T02:33:36;23.43;;;9.53;;
16173;SDS011;14031;50.158;8.626;2024-01-15T02:36:03;21.13;;;10.13;;
16173;SDS011;14031;50.158;8.626;2024-01-15T02:38:30;22.37;;;8.93;;
16173;SDS011;14031;50.158;8.626;2024-01-15T02:40:58;22.23;;;9.37;;
16173;SDS011;14031;50.158;8.626;2024-01-15T02:43:25;17.33;;;9.57;;
16173;SDS011;14031;50.158;8.626;2024-01-15T02:45:52;22.83;;;9.80;;
16173;SDS011;14031;50.158;8.626;2024-01-15T02:48:18;19.33;;;9.37;;
16173;SDS011;14031;50.158;8.626;2024-01-15T02:50:45;21.60;;;9.70;;
16173;SDS011;14031;50.158;8.626;2024-01-15T02:53:12;22.90;;;9.93;;
16173;SDS011;14031;50.158;8.626;2024-01-15T02:55:39;21.00;;;9.90;;
16173;SDS011;14031;50.158;8.626;2024-01-15T02:58:07;24.23;;;10.13;;
16173;SDS011;14031;50.158;8.626;2024-01-15T03:00:33;21.20;;;10.23;;
16173;SDS011;14031;50.158;8.626;2024-01-15T03:03:00;22.47;;;10.10;;
16173;SDS011;14031;50.158;8.626;2024-01-15T03:05:27;21.73;;;10.10;;
16173;SDS011;14031;50.158;8.626;2024-01-15T03:07:54;23.63;;;10.00;;
16173;SDS011;14031;50.158;8.626;2024-01-15T03:10:20;27.27;;;9.80;;
16173;SDS011;14031;50.158;8.626;2024-01-15T03:12:47;24.57;;;9.73;;
16173;SDS011;14031;50.158;8.626;2024-01-15T03:15:15;25.17;;;10.17;;
16173;SDS011;14031;50.158;8.626;2024-01-15T03:17:43;26.13;;;9.97;;
16173;SDS011;14031;50.158;8.626;2024-01-15T03:20:10;22.87;;;9.93;;
16173;SDS011;14031;50.158;8.626;2024-01-15T03:22:37;26.03;;;10.73;;
16173;SDS011;14031;50.158;8.626;2024-01-15T03:25:04;25.97;;;11.17;;
16173;SDS011;14031;50.158;8.626;2024-01-15T03:27:32;21.97;;;9.07;;
16173;SDS011;14031;50.158;8.626;2024-01-15T03:29:59;21.60;;;10.30;;
16173;SDS011;14031;50.158;8.626;2024-01-15T03:32:28;23.00;;;9.10;;
16173;SDS011;14031;50.158;8.626;2024-01-15T03:34:55;25.13;;;9.47;;
16173;SDS011;14031;50.158;8.626;2024-01-15T03:37:22;17.67;;;8.80;;
16173;SDS011;14031;50.158;8.626;2024-01-15T03:39:48;25.23;;;8.93;;
16173;SDS011;14031;50.158;8.626;2024-01-15T03:42:15;22.97;;;9.63;;
16173;SDS011;14031;50.158;8.626;2024-01-15T03:44:42;21.97;;;9.67;;
16173;SDS011;14031;50.158;8.626;2024-01-15T03:47:09;20.23;;;8.83;;
16173;SDS011;14031;50.158;8.626;2024-01-15T03:49:37;20.80;;;8.97;;
16173;SDS011;14031;50.158;8.626;2024-01-15T03:52:04;16.73;;;9.60;;
16173;SDS011;14031;50.158;8.626;2024-01-15T03:54:31;18.93;;;10.10;;
16173;SDS011;14031;50.158;8.626;2024-01-15T03:56:57;21.50;;;9.93;;
16173;SDS011;14031;50.158;8.626;2024-01-15T03:59:24;19.07;;;9.60;;
16173;SDS011;14031;50.158;8.626;2024-01-15T04:01:51;23.90;;;9.60;;
16173;SDS011;14031;50.158;8.626;2024-01-15T04:04:18;18.73;;;9.90;;
16173;SDS011;14031;50.158;8.626;2024-01-15T04:06:46;21.37;;;9.80;;
16173;SDS011;14031;50.158;8.626;2024-01-15T04:09:13;22.50;;;9.20;;
16173;SDS011;14031;50.158;8.626;2024-01-15T04:11:40;20.63;;;9.50;;
16173;SDS011;14031;50.158;8.626;2024-01-15T04:14:06;17.00;;;7.83;;
16173;SDS011;14031;50.158;8.626;2024-01-15T04:16:33;15.70;;;8.60;;
16173;SDS011;14031;50.158;8.626;2024-01-15T04:19:00;18.23;;;8.93;;
16173;SDS011;14031;50.158;8.626;2024-01-15T04:21:27;15.77;;;7.93;;
16173;SDS011;14031;50.158;8.626;2024-01-15T04:23:55;19.60;;;8.97;;
16173;SDS011;14031;50.158;8.626;2024-01-15T04:26:21;22.37;;;9.80;;
16173;SDS011;14031;50.158;8.626;2024-01-15T04:28:48;16.43;;;8.20;;
16173;SDS011;14031;50.158;8.626;2024-01-15T04:31:22;21.27;;;8.77;;
16173;SDS011;14031;50.158;8.626;2024-01-15T04:33:50;19.73;;;8.83;;
16173;SDS011;14031;50.158;8.626;2024-01-15T04:36:17;15.97;;;8.13;;
16173;SDS011;14031;50.158;8.626;2024-01-15T04:38:43;17.03;;;8.53;;
16173;SDS011;14031;50.158;8.626;2024-01-15T04:41:12;18.50;;;8.30;;
16173;SDS011;14031;50.158;8.626;2024-01-15T04:43:40;17.90;;;8.43;;
16173;SDS011;14031;50.158;8.626;2024-01-15T04:46:06;23.87;;;9.23;;
16173;SDS011;14031;50.158;8.626;2024-01-15T04:48:33;18.97;;;8.73;;
16173;SDS011;14031;50.158;8.626;2024-01-15T04:51:00;17.17;;;8.03;;
16173;SDS011;14031;50.158;8.626;2024-01-15T04:53:30;17.10;;;8.53;;
16173;SDS011;14031;50.158;8.626;2024-01-15T04:55:56;16.87;;;8.97;;
16173;SDS011;14031;50.158;8.626;2024-01-15T04:58:24;13.67;;;7.97;;
16173;SDS011;14031;50.158;8.626;2024-01-15T05:00:52;18.43;;;8.10;;
16173;SDS011;14031;50.158;8.626;2024-01-15T05:03:19;19.90;;;8.77;;
16173;SDS011;14031;50.158;8.626;2024-01-15T05:05:46;17.60;;;8.97;;
16173;SDS011;14031;50.158;8.626;2024-01-15T05:08:12;12.77;;;7.57;;
16173;SDS011;14031;50.158;8.626;2024-01-15T05:10:39;14.80;;;7.83;;
16173;SDS011;14031;50.158;8.626;2024-01-15T05:13:06;19.10;;;8.43;;
16173;SDS011;14031;50.158;8.626;2024-01-15T05:15:34;19.90;;;8.93;;
16173;SDS011;14031;50.158;8.626;2024-01-15T05:18:01;20.73;;;7.90;;
16173;SDS011;14031;50.158;8.626;2024-01-15T05:20:28;19.27;;;8.50;;
16173;SDS011;14031;50.158;8.626;2024-01-15T05:22:54;19.47;;;8.57;;
16173;SDS011;14031;50.158;8.626;2024-01-15T05:25:21;20.80;;;8.40;;
16173;SDS011;14031;50.158;8.626;2024-01-15T05:27:48;16.50;;;7.97;;
16173;SDS011;14031;50.158;8.626;2024-01-15T05:30:15;15.80;;;8.50;;
16173;SDS011;14031;50.158;8.626;2024-01-15T05:32:43;23.43;;;8.90;;
16173;SDS011;14031;50.158;8.626;2024-01-15T05:35:10;18.63;;;8.17;;
16173;SDS011;14031;50.158;8.626;2024-01-15T05:37:38;21.17;;;8.23;;
16173;SDS011;14031;50.158;8.626;2024-01-15T05:40:08;18.53;;;7.67;;
16173;SDS011;14031;50.158;8.626;2024-01-15T05:42:35;19.57;;;7.40;;
16173;SDS011;14031;50.158;8.626;2024-01-15T05:45:02;21.77;;;8.83;;
16173;SDS011;14031;50.158;8.626;2024-01-15T05:47:30;19.10;;;8.83;;
16173;SDS011;14031;50.158;8.626;2024-01-15T05:49:58;19.70;;;9.63;;
16173;SDS011;14031;50.158;8.626;2024-01-15T05:52:26;20.30;;;8.97;;
16173;SDS011;14031;50.158;8.626;2024-01-15T05:54:53;15.50;;;8.57;;
16173;SDS011;14031;50.158;8.626;2024-01-15T05:57:20;21.10;;;9.97;;
16173;SDS011;14031;50.158;8.626;2024-01-15T05:59:48;23.37;;;8.97;;
16173;SDS011;14031;50.158;8.626;2024-01-15T06:02:15;20.27;;;8.80;;
16173;SDS011;14031;50.158;8.626;2024-01-15T06:04:42;20.30;;;9.07;;
16173;SDS011;14031;50.158;8.626;2024-01-15T06:07:10;19.77;;;9.10;;
16173;SDS011;14031;50.158;8.626;2024-01-15T06:09:36;21.73;;;9.23;;
16173;SDS011;14031;50.158;8.626;2024-01-15T06:12:04;19.97;;;9.40;;
16173;SDS011;14031;50.158;8.626;2024-01-15T06:14:33;17.43;;;9.00;;
16173;SDS011;14031;50.158;8.626;2024-01-15T06:17:00;24.30;;;9.60;;
16173;SDS011;14031;50.158;8.626;2024-01-15T06:19:26;19.10;;;8.93;;
16173;SDS011;14031;50.158;8.626;2024-01-15T06:21:53;22.17;;;9.27;;
16173;SDS011;14031;50.158;8.626;2024-01-15T06:24:21;23.27;;;9.63;;
16173;SDS011;14031;50.158;8.626;2024-01-15T06:26:48;21.23;;;9.27;;
16173;SDS011;14031;50.158;8.626;2024-01-15T06:29:15;19.77;;;9.33;;
16173;SDS011;14031;50.158;8.626;2024-01-15T06:31:41;18.43;;;9.63;;
16173;SDS011;14031;50.158;8.626;2024-01-15T06:34:09;17.67;;;8.77;;
16173;SDS011;14031;50.158;8.626;2024-01-15T06:36:36;19.97;;;9.50;;
16173;SDS011;14031;50.158;8.626;2024-01-15T06:39:03;20.07;;;9.80;;
16173;SDS011;14031;50.158;8.626;2024-01-15T06:41:31;19.20;;;9.80;;
16173;SDS011;14031;50.158;8.626;2024-01-15T06:43:58;23.23;;;9.93;;
16173;SDS011;14031;50.158;8.626;2024-01-15T06:46:25;29.47;;;9.87;;
16173;SDS011;14031;50.158;8.626;2024-01-15T06:48:51;18.97;;;10.10;;
16173;SDS011;14031;50.158;8.626;2024-01-15T06:51:18;19.93;;;10.13;;
16173;SDS011;14031;50.158;8.626;2024-01-15T06:53:45;21.53;;;9.53;;
16173;SDS011;14031;50.158;8.626;2024-01-15T06:56:12;26.03;;;9.93;;
16173;SDS011;14031;50.158;8.626;2024-01-15T06:58:40;20.10;;;9.27;;
16173;SDS011;14031;50.158;8.626;2024-01-15T07:01:07;19.67;;;9.80;;
16173;SDS011;14031;50.158;8.626;2024-01-15T07:03:33;19.70;;;9.83;;
16173;SDS011;14031;50.158;8.626;2024-01-15T07:06:00;17.27;;;9.40;;
16173;SDS011;14031;50.158;8.626;2024-01-15T07:08:27;20.40;;;10.03;;
16173;SDS011;14031;50.158;8.626;2024-01-15T07:10:54;22.77;;;10.03;;
16173;SDS011;14031;50.158;8.626;2024-01-15T07:13:20;19.33;;;9.50;;
16173;SDS011;14031;50.158;8.626;2024-01-15T07:15:49;24.77;;;10.40;;
16173;SDS011;14031;50.158;8.626;2024-01-15T07:18:15;22.27;;;9.23;;
16173;SDS011;14031;50.158;8.626;2024-01-15T07:20:42;18.63;;;9.33;;
16173;SDS011;14031;50.158;8.626;2024-01-15T07:23:09;22.70;;;9.57;;
16173;SDS011;14031;50.158;8.626;2024-01-15T07:25:36;18.23;;;9.10;;
16173;SDS011;14031;50.158;8.626;2024-01-15T07:28:03;25.20;;;10.03;;
16173;SDS011;14031;50.158;8.626;2024-01-15T07:30:30;20.10;;;9.60;;
16173;SDS011;14031;50.158;8.626;2024-01-15T07:32:58;24.10;;;10.33;;
16173;SDS011;14031;50.158;8.626;2024-01-15T07:35:25;23.97;;;10.30;;
16173;SDS011;14031;50.158;8.626;2024-01-15T07:37:52;19.50;;;10.27;;
16173;SDS011;14031;50.158;8.626;2024-01-15T07:40:19;20.17;;;9.47;;
16173;SDS011;14031;50.158;8.626;2024-01-15T07:42:46;21.73;;;9.20;;
16173;SDS011;14031;50.158;8.626;2024-01-15T07:45:13;18.97;;;9.63;;
16173;SDS011;14031;50.158;8.626;2024-01-15T07:47:39;21.70;;;10.10;;
16173;SDS011;14031;50.158;8.626;2024-01-15T07:50:08;20.90;;;9.90;;
16173;SDS011;14031;50.158;8.626;2024-01-15T07:52:34;19.80;;;8.77;;
16173;SDS011;14031;50.158;8.626;2024-01-15T07:55:01;20.23;;;10.03;;
16173;SDS011;14031;50.158;8.626;2024-01-15T07:57:30;18.80;;;9.23;;
16173;SDS011;14031;50.158;8.626;2024-01-15T07:59:57;26.03;;;9.87;;
16173;SDS011;14031;50.158;8.626;2024-01-15T08:02:23;18.17;;;9.00;;
16173;SDS011;14031;50.158;8.626;2024-01-15T08:04:50;19.20;;;9.67;;
16173;SDS011;14031;50.158;8.626;2024-01-15T08:07:18;23.17;;;10.00;;
16173;SDS011;14031;50.158;8.626;2024-01-15T08:09:45;20.17;;;9.73;;
16173;SDS011;14031;50.158;8.626;2024-01-15T08:12:12;17.57;;;9.20;;
16173;SDS011;14031;50.158;8.626;2024-01-15T08:14:39;23.10;;;10.00;;
16173;SDS011;14031;50.158;8.626;2024-01-15T08:17:06;21.17;;;9.70;;
16173;SDS011;14031;50.158;8.626;2024-01-15T08:19:33;17.57;;;9.70;;
16173;SDS011;14031;50.158;8.626;2024-01-15T08:22:00;20.83;;;9.33;;
16173;SDS011;14031;50.158;8.626;2024-01-15T08:24:28;21.10;;;10.13;;
16173;SDS011;14031;50.158;8.626;2024-01-15T08:26:54;19.53;;;9.53;;
16173;SDS011;14031;50.158;8.626;2024-01-15T08:29:22;20.30;;;10.27;;
16173;SDS011;14031;50.158;8.626;2024-01-15T08:31:49;24.67;;;11.20;;
16173;SDS011;14031;50.158;8.626;2024-01-15T08:34:16;21.93;;;10.57;;
16173;SDS011;14031;50.158;8.626;2024-01-15T08:36:43;22.93;;;10.80;;
16173;SDS011;14031;50.158;8.626;2024-01-15T08:39:10;22.83;;;10.83;;
16173;SDS011;14031;50.158;8.626;2024-01-15T08:41:38;22.87;;;11.37;;
16173;SDS011;14031;50.158;8.626;2024-01-15T08:44:04;23.00;;;10.70;;
16173;SDS011;14031;50.158;8.626;2024-01-15T08:46:31;21.90;;;11.07;;
16173;SDS011;14031;50.158;8.626;2024-01-15T08:48:58;22.97;;;10.40;;
16173;SDS011;14031;50.158;8.626;2024-01-15T08:51:25;21.87;;;11.07;;
16173;SDS011;14031;50.158;8.626;2024-01-15T08:53:51;26.13;;;11.67;;
16173;SDS011;14031;50.158;8.626;2024-01-15T08:56:18;22.37;;;10.60;;
16173;SDS011;14031;50.158;8.626;2024-01-15T08:58:46;20.20;;;10.23;;
16173;SDS011;14031;50.158;8.626;2024-01-15T09:01:13;25.23;;;10.50;;
16173;SDS011;14031;50.158;8.626;2024-01-15T09:03:40;16.63;;;9.73;;
16173;SDS011;14031;50.158;8.626;2024-01-15T09:06:08;24.00;;;10.57;;
16173;SDS011;14031;50.158;8.626;2024-01-15T09:08:35;22.43;;;10.50;;
16173;SDS011;14031;50.158;8.626;2024-01-15T09:11:02;18.10;;;10.33;;
16173;SDS011;14031;50.158;8.626;2024-01-15T09:13:29;25.43;;;11.03;;
16173;SDS011;14031;50.158;8.626;2024-01-15T09:15:57;20.20;;;10.17;;
16173;SDS011;14031;50.158;8.626;2024-01-15T09:18:25;23.70;;;9.87;;
16173;SDS011;14031;50.158;8.626;2024-01-15T09:20:51;22.87;;;10.07;;
16173;SDS011;14031;50.158;8.626;2024-01-15T09:23:18;23.07;;;10.40;;
16173;SDS011;14031;50.158;8.626;2024-01-15T09:25:45;19.07;;;10.17;;
16173;SDS011;14031;50.158;8.626;2024-01-15T09:28:13;19.70;;;10.03;;
16173;SDS011;14031;50.158;8.626;2024-01-15T09:30:39;19.53;;;10.13;;
16173;SDS011;14031;50.158;8.626;2024-01-15T09:33:07;16.53;;;9.30;;
16173;SDS011;14031;50.158;8.626;2024-01-15T09:35:34;18.60;;;10.50;;
16173;SDS011;14031;50.158;8.626;2024-01-15T09:38:02;19.83;;;10.53;;
16173;SDS011;14031;50.158;8.626;2024-01-15T09:40:30;23.60;;;10.77;;
16173;SDS011;14031;50.158;8.626;2024-01-15T09:42:59;16.97;;;9.20;;
16173;SDS011;14031;50.158;8.626;2024-01-15T09:45:26;18.53;;;9.97;;
16173;SDS011;14031;50.158;8.626;2024-01-15T09:47:53;24.03;;;10.67;;
16173;SDS011;14031;50.158;8.626;2024-01-15T09:50:21;16.27;;;9.17;;
16173;SDS011;14031;50.158;8.626;2024-01-15T09:52:48;21.00;;;10.03;;
16173;SDS011;14031;50.158;8.626;2024-01-15T09:55:17;16.47;;;9.57;;
16173;SDS011;14031;50.158;8.626;2024-01-15T09:57:44;13.53;;;8.90;;
16173;SDS011;14031;50.158;8.626;2024-01-15T10:00:12;15.43;;;9.27;;
16173;SDS011;14031;50.158;8.626;2024-01-15T10:02:39;16.60;;;9.23;;
16173;SDS011;14031;50.158;8.626;2024-01-15T10:05:06;17.07;;;8.70;;
16173;SDS011;14031;50.158;8.626;2024-01-15T10:07:36;14.87;;;8.97;;
16173;SDS011;14031;50.158;8.626;2024-01-15T10:10:05;15.07;;;8.27;;
16173;SDS011;14031;50.158;8.626;2024-01-15T10:12:33;18.27;;;8.83;;
16173;SDS011;14031;50.158;8.626;2024-01-15T10:15:02;15.03;;;8.63;;
16173;SDS011;14031;50.158;8.626;2024-01-15T10:17:29;19.33;;;9.03;;
16173;SDS011;14031;50.158;8.626;2024-01-15T10:19:57;15.27;;;9.47;;
16173;SDS011;14031;50.158;8.626;2024-01-15T10:22:23;19.73;;;8.90;;
16173;SDS011;14031;50.158;8.626;2024-01-15T10:24:52;15.30;;;8.97;;
16173;SDS011;14031;50.158;8.626;2024-01-15T10:27:19;14.70;;;8.97;;
16173;SDS011;14031;50.158;8.626;2024-01-15T10:29:46;15.53;;;9.43;;
16173;SDS011;14031;50.158;8.626;2024-01-15T10:32:12;15.73;;;8.97;;
16173;SDS011;14031;50.158;8.626;2024-01-15T10:34:39;15.03;;;9.47;;
16173;SDS011;14031;50.158;8.626;2024-01-15T10:37:07;17.03;;;8.33;;
16173;SDS011;14031;50.158;8.626;2024-01-15T10:39:35;13.70;;;8.73;;
16173;SDS011;14031;50.158;8.626;2024-01-15T10:42:04;14.63;;;8.60;;
16173;SDS011;14031;50.158;8.626;2024-01-15T10:44:31;11.83;;;7.87;;
16173;SDS011;14031;50.158;8.626;2024-01-15T10:46:59;12.23;;;8.37;;
16173;SDS011;14031;50.158;8.626;2024-01-15T10:49:26;12.70;;;8.33;;
16173;SDS011;14031;50.158;8.626;2024-01-15T10:51:54;16.50;;;8.83;;
16173;SDS011;14031;50.158;8.626;2024-01-15T10:54:22;19.33;;;8.77;;
16173;SDS011;14031;50.158;8.626;2024-01-15T10:56:49;12.90;;;8.70;;
16173;SDS011;14031;50.158;8.626;2024-01-15T10:59:19;13.57;;;8.73;;
16173;SDS011;14031;50.158;8.626;2024-01-15T11:01:48;15.93;;;8.47;;
16173;SDS011;14031;50.158;8.626;2024-01-15T11:04:15;14.90;;;8.70;;
16173;SDS011;14031;50.158;8.626;2024-01-15T11:06:43;13.87;;;8.50;;
16173;SDS011;14031;50.158;8.626;2024-01-15T11:09:12;13.23;;;8.13;;
16173;SDS011;14031;50.158;8.626;2024-01-15T11:11:40;17.27;;;9.40;;
16173;SDS011;14031;50.158;8.626;2024-01-15T11:14:08;16.07;;;9.23;;
16173;SDS011;14031;50.158;8.626;2024-01-15T11:16:55;17.53;;;9.00;;
16173;SDS011;14031;50.158;8.626;2024-01-15T11:19:24;10.30;;;7.93;;
16173;SDS011;14031;50.158;8.626;2024-01-15T11:21:51;10.30;;;7.80;;
16173;SDS011;14031;50.158;8.626;2024-01-15T11:24:34;15.30;;;8.33;;
16173;SDS011;14031;50.158;8.626;2024-01-15T11:27:02;11.53;;;7.53;;
16173;SDS011;14031;50.158;8.626;2024-01-15T11:29:30;10.57;;;8.07;;
16173;SDS011;14031;50.158;8.626;2024-01-15T11:32:01;9.63;;;7.07;;
16173;SDS011;14031;50.158;8.626;2024-01-15T11:37:22;12.07;;;8.03;;
16173;SDS011;14031;50.158;8.626;2024-01-15T11:39:51;11.03;;;7.57;;
16173;SDS011;14031;50.158;8.626;2024-01-15T11:42:19;14.33;;;8.33;;
16173;SDS011;14031;50.158;8.626;2024-01-15T11:44:47;10.57;;;7.67;;
16173;SDS011;14031;50.158;8.626;2024-01-15T11:47:16;11.63;;;7.87;;
16173;SDS011;14031;50.158;8.626;2024-01-15T11:50:05;9.90;;;7.83;;
16173;SDS011;14031;50.158;8.626;2024-01-15T11:52:33;10.63;;;7.53;;
16173;SDS011;14031;50.158;8.626;2024-01-15T11:55:01;8.93;;;8.03;;
16173;SDS011;14031;50.158;8.626;2024-01-15T11:57:46;13.47;;;7.87;;
16173;SDS011;14031;50.158;8.626;2024-01-15T12:00:15;11.90;;;7.43;;
16173;SDS011;14031;50.158;8.626;2024-01-15T12:02:44;10.90;;;7.30;;
16173;SDS011;14031;50.158;8.626;2024-01-15T12:05:12;12.27;;;8.00;;
16173;SDS011;14031;50.158;8.626;2024-01-15T12:07:39;11.17;;;8.27;;
16173;SDS011;14031;50.158;8.626;2024-01-15T12:10:09;11.77;;;7.67;;
16173;SDS011;14031;50.158;8.626;2024-01-15T12:12:47;13.03;;;8.07;;
16173;SDS011;14031;50.158;8.626;2024-01-15T12:15:24;12.13;;;7.03;;
16173;SDS011;14031;50.158;8.626;2024-01-15T12:17:52;12.00;;;7.40;;
16173;SDS011;14031;50.158;8.626;2024-01-15T12:20:22;10.50;;;7.43;;
16173;SDS011;14031;50.158;8.626;2024-01-15T12:22:50;8.90;;;7.10;;
16173;SDS011;14031;50.158;8.626;2024-01-15T12:25:16;11.57;;;6.77;;
16173;SDS011;14031;50.158;8.626;2024-01-15T12:27:43;10.13;;;7.20;;
16173;SDS011;14031;50.158;8.626;2024-01-15T12:30:11;12.53;;;7.10;;
16173;SDS011;14031;50.158;8.626;2024-01-15T12:32:39;10.27;;;7.20;;
16173;SDS011;14031;50.158;8.626;2024-01-15T12:35:08;7.23;;;6.33;;
16173;SDS011;14031;50.158;8.626;2024-01-15T12:37:35;11.30;;;6.90;;
16173;SDS011;14031;50.158;8.626;2024-01-15T12:40:03;10.50;;;7.17;;
16173;SDS011;14031;50.158;8.626;2024-01-15T12:42:31;9.00;;;6.57;;
16173;SDS011;14031;50.158;8.626;2024-01-15T12:44:58;12.10;;;6.97;;
16173;SDS011;14031;50.158;8.626;2024-01-15T12:47:26;7.53;;;6.40;;
16173;SDS011;14031;50.158;8.626;2024-01-15T12:49:53;12.40;;;7.53;;
16173;SDS011;14031;50.158;8.626;2024-01-15T12:52:21;8.20;;;7.10;;
16173;SDS011;14031;50.158;8.626;2024-01-15T12:54:48;7.43;;;6.73;;
16173;SDS011;14031;50.158;8.626;2024-01-15T12:57:15;8.27;;;6.50;;
16173;SDS011;14031;50.158;8.626;2024-01-15T12:59:42;7.87;;;6.27;;
16173;SDS011;14031;50.158;8.626;2024-01-15T13:02:10;8.47;;;6.60;;
16173;SDS011;14031;50.158;8.626;2024-01-15T13:04:37;9.23;;;6.10;;
16173;SDS011;14031;50.158;8.626;2024-01-15T13:07:04;8.37;;;5.27;;
16173;SDS011;14031;50.158;8.626;2024-01-15T13:09:33;7.67;;;5.50;;
16173;SDS011;14031;50.158;8.626;2024-01-15T13:12:00;9.27;;;5.03;;
16173;SDS011;14031;50.158;8.626;2024-01-15T13:14:28;6.83;;;5.37;;
16173;SDS011;14031;50.158;8.626;2024-01-15T13:16:55;14.00;;;6.27;;
16173;SDS011;14031;50.158;8.626;2024-01-15T13:19:22;8.00;;;5.77;;
16173;SDS011;14031;50.158;8.626;2024-01-15T13:21:48;7.90;;;5.60;;
16173;SDS011;14031;50.158;8.626;2024-01-15T13:24:16;4.90;;;4.50;;
16173;SDS011;14031;50.158;8.626;2024-01-15T13:26:44;6.03;;;4.63;;
16173;SDS011;14031;50.158;8.626;2024-01-15T13:29:12;9.13;;;6.47;;
16173;SDS011;14031;50.158;8.626;2024-01-15T13:31:40;7.57;;;4.80;;
16173;SDS011;14031;50.158;8.626;2024-01-15T13:34:06;6.67;;;4.87;;
16173;SDS011;14031;50.158;8.626;2024-01-15T13:36:34;6.10;;;4.67;;
16173;SDS011;14031;50.158;8.626;2024-01-15T13:39:01;6.27;;;4.63;;
16173;SDS011;14031;50.158;8.626;2024-01-15T13:41:28;7.40;;;4.90;;
16173;SDS011;14031;50.158;8.626;2024-01-15T13:43:56;4.70;;;4.30;;
16173;SDS011;14031;50.158;8.626;2024-01-15T13:46:24;4.40;;;3.83;;
16173;SDS011;14031;50.158;8.626;2024-01-15T13:48:52;4.17;;;3.63;;
16173;SDS011;14031;50.158;8.626;2024-01-15T13:51:21;4.33;;;4.00;;
16173;SDS011;14031;50.158;8.626;2024-01-15T13:53:49;5.33;;;4.00;;
16173;SDS011;14031;50.158;8.626;2024-01-15T13:56:16;5.50;;;3.63;;
16173;SDS011;14031;50.158;8.626;2024-01-15T13:58:43;4.67;;;3.77;;
16173;SDS011;14031;50.158;8.626;2024-01-15T14:01:11;5.83;;;3.90;;
16173;SDS011;14031;50.158;8.626;2024-01-15T14:03:38;4.33;;;3.80;;
16173;SDS011;14031;50.158;8.626;2024-01-15T14:06:05;3.53;;;3.23;;
16173;SDS011;14031;50.158;8.626;2024-01-15T14:08:34;3.77;;;3.23;;
16173;SDS011;14031;50.158;8.626;2024-01-15T14:11:01;3.30;;;3.00;;
16173;SDS011;14031;50.158;8.626;2024-01-15T14:13:28;4.13;;;3.77;;
16173;SDS011;14031;50.158;8.626;2024-01-15T14:15:55;3.20;;;2.90;;
16173;SDS011;14031;50.158;8.626;2024-01-15T14:18:23;4.57;;;2.93;;
16173;SDS011;14031;50.158;8.626;2024-01-15T14:20:50;3.80;;;3.50;;
16173;SDS011;14031;50.158;8.626;2024-01-15T14:23:16;3.27;;;3.00;;
16173;SDS011;14031;50.158;8.626;2024-01-15T14:25:44;3.50;;;2.97;;
16173;SDS011;14031;50.158;8.626;2024-01-15T14:28:11;3.83;;;2.93;;
16173;SDS011;14031;50.158;8.626;2024-01-15T14:30:38;3.50;;;2.77;;
16173;SDS011;14031;50.158;8.626;2024-01-15T14:33:04;3.87;;;3.37;;
16173;SDS011;14031;50.158;8.626;2024-01-15T14:35:32;3.00;;;2.70;;
16173;SDS011;14031;50.158;8.626;2024-01-15T14:37:59;2.87;;;2.67;;